createdAt,value
2018-10-17T00:00:37.372Z,17.70
2018-10-17T00:02:08.947Z,19.80
2018-10-17T00:03:40.822Z,18.00
2018-10-17T00:05:12.210Z,18.30
2018-10-17T00:06:43.666Z,17.80
2018-10-17T00:08:15.239Z,17.90
2018-10-17T00:09:46.813Z,18.00
2018-10-17T00:11:18.386Z,16.80
2018-10-17T00:12:49.959Z,15.30
2018-10-17T00:14:21.532Z,16.40
2018-10-17T00:15:53.106Z,17.30
2018-10-17T00:17:24.687Z,17.70
2018-10-17T00:20:27.825Z,16.40
2018-10-17T00:21:59.500Z,16.30
2018-10-17T00:23:30.972Z,15.50
2018-10-17T00:25:02.614Z,15.60
2018-10-17T00:26:34.119Z,15.30
2018-10-17T00:28:05.713Z,16.00
2018-10-17T00:29:37.265Z,15.50
2018-10-17T00:31:08.905Z,14.20
2018-10-17T00:32:40.419Z,15.20
2018-10-17T00:34:11.986Z,15.80
2018-10-17T00:35:43.558Z,15.80
2018-10-17T00:37:15.259Z,17.30
2018-10-17T00:38:46.705Z,15.90
2018-10-17T00:40:18.416Z,15.20
2018-10-17T00:41:49.852Z,15.90
2018-10-17T00:43:21.524Z,15.70
2018-10-17T00:46:24.572Z,16.20
2018-10-17T00:47:56.146Z,16.60
2018-10-17T00:49:27.718Z,15.30
2018-10-17T00:50:59.291Z,16.70
2018-10-17T00:52:30.864Z,15.80
2018-10-17T00:54:02.438Z,17.80
2018-10-17T00:55:34.010Z,17.30
2018-10-17T00:57:05.585Z,17.40
2018-10-17T00:58:37.257Z,18.10
2018-10-17T01:00:08.731Z,19.20
2018-10-17T01:01:40.303Z,16.40
2018-10-17T01:03:11.878Z,18.00
2018-10-17T01:04:43.452Z,17.70
2018-10-17T01:06:15.024Z,16.20
2018-10-17T01:07:46.596Z,16.80
2018-10-17T01:09:18.169Z,19.10
2018-10-17T01:10:49.742Z,19.20
2018-10-17T01:12:21.315Z,17.40
2018-10-17T01:13:52.889Z,18.20
2018-10-17T01:15:24.478Z,17.70
2018-10-17T01:16:56.624Z,17.80
2018-10-17T01:18:27.609Z,16.60
2018-10-17T01:19:59.182Z,17.20
2018-10-17T01:21:31.236Z,16.90
2018-10-17T01:23:02.572Z,17.80
2018-10-17T01:24:34.115Z,18.80
2018-10-17T01:26:05.614Z,18.50
2018-10-17T01:27:37.247Z,17.90
2018-10-17T01:29:08.873Z,18.20
2018-10-17T01:30:40.198Z,20.20
2018-10-17T01:32:12.718Z,18.70
2018-10-17T01:33:43.343Z,19.10
2018-10-17T01:35:15.096Z,20.60
2018-10-17T01:36:46.489Z,21.10
2018-10-17T01:38:18.063Z,20.20
2018-10-17T01:41:21.211Z,19.70
2018-10-17T01:42:53.022Z,20.90
2018-10-17T01:44:24.357Z,20.00
2018-10-17T01:45:55.930Z,19.40
2018-10-17T01:47:27.504Z,19.20
2018-10-17T01:48:59.098Z,18.60
2018-10-17T01:50:30.649Z,17.70
2018-10-17T01:52:02.229Z,16.90
2018-10-17T01:53:34.051Z,17.30
2018-10-17T01:55:05.471Z,15.70
2018-10-17T01:56:36.942Z,15.60
2018-10-17T01:58:08.516Z,14.80
2018-10-17T01:59:40.393Z,16.40
2018-10-17T02:01:11.977Z,16.20
2018-10-17T02:02:43.263Z,16.80
2018-10-17T02:04:14.819Z,15.20
2018-10-17T02:05:46.382Z,15.30
2018-10-17T02:07:17.956Z,15.70
2018-10-17T02:08:49.529Z,15.40
2018-10-17T02:10:21.103Z,16.50
2018-10-17T02:11:52.786Z,15.40
2018-10-17T02:13:24.247Z,17.50
2018-10-17T02:14:56.023Z,15.50
2018-10-17T02:16:27.393Z,15.10
2018-10-17T02:17:59.119Z,15.50
2018-10-17T02:19:30.543Z,16.10
2018-10-17T02:21:02.114Z,15.40
2018-10-17T02:22:33.687Z,15.60
2018-10-17T02:24:05.329Z,15.90
2018-10-17T02:25:36.833Z,14.90
2018-10-17T02:27:08.410Z,15.50
2018-10-17T02:28:39.980Z,15.40
2018-10-17T02:30:11.867Z,14.70
2018-10-17T02:31:43.154Z,13.80
2018-10-17T02:33:14.707Z,13.50
2018-10-17T02:34:46.275Z,14.90
2018-10-17T02:36:17.849Z,14.40
2018-10-17T02:37:49.431Z,14.30
2018-10-17T02:39:21.059Z,13.60
2018-10-17T02:40:52.570Z,13.70
2018-10-17T02:42:24.142Z,14.20
2018-10-17T02:43:55.823Z,14.40
2018-10-17T02:45:27.343Z,14.40
2018-10-17T02:46:58.912Z,14.00
2018-10-17T02:48:30.648Z,14.80
2018-10-17T02:50:02.010Z,14.60
2018-10-17T02:51:33.584Z,14.80
2018-10-17T02:53:05.232Z,15.00
2018-10-17T02:54:36.731Z,14.30
2018-10-17T02:56:08.303Z,14.80
2018-10-17T02:57:40.383Z,14.90
2018-10-17T02:59:11.533Z,14.70
2018-10-17T03:00:43.025Z,15.00
2018-10-17T03:02:14.627Z,15.70
2018-10-17T03:05:17.885Z,15.80
2018-10-17T03:06:49.419Z,16.20
2018-10-17T03:08:20.893Z,15.00
2018-10-17T03:09:52.466Z,15.90
2018-10-17T03:11:24.039Z,15.70
2018-10-17T03:12:55.837Z,15.50
2018-10-17T03:14:27.194Z,16.00
2018-10-17T03:15:58.761Z,15.60
2018-10-17T03:17:30.333Z,13.00
2018-10-17T03:19:02.045Z,15.00
2018-10-17T03:20:33.483Z,15.40
2018-10-17T03:22:05.051Z,15.20
2018-10-17T03:23:36.623Z,16.00
2018-10-17T03:25:08.421Z,15.40
2018-10-17T03:26:39.771Z,17.90
2018-10-17T03:28:11.371Z,15.20
2018-10-17T03:29:42.916Z,16.90
2018-10-17T03:31:14.550Z,16.30
2018-10-17T03:32:46.063Z,17.30
2018-10-17T03:34:17.636Z,17.10
2018-10-17T03:35:49.244Z,14.30
2018-10-17T03:37:20.782Z,16.50
2018-10-17T03:38:52.355Z,15.80
2018-10-17T03:40:23.927Z,16.00
2018-10-17T03:41:55.508Z,15.70
2018-10-17T03:43:27.176Z,14.40
2018-10-17T03:44:58.649Z,14.10
2018-10-17T03:46:30.233Z,14.70
2018-10-17T03:48:01.794Z,15.00
2018-10-17T03:49:33.500Z,15.00
2018-10-17T03:51:05.011Z,16.20
2018-10-17T03:52:36.513Z,14.80
2018-10-17T03:55:40.480Z,13.30
2018-10-17T03:57:11.225Z,15.90
2018-10-17T03:58:42.798Z,14.70
2018-10-17T04:09:23.914Z,15.70
2018-10-17T04:10:55.407Z,15.20
2018-10-17T04:15:30.205Z,15.70
2018-10-17T04:17:01.700Z,15.40
2018-10-17T04:21:37.396Z,15.60
2018-10-17T04:23:09.000Z,13.90
2018-10-17T04:24:40.150Z,15.80
2018-10-17T04:26:11.115Z,13.70
2018-10-17T04:27:42.785Z,17.00
2018-10-17T04:29:14.350Z,14.00
2018-10-17T04:30:45.831Z,15.30
2018-10-17T04:32:17.405Z,15.50
2018-10-17T04:33:49.181Z,16.00
2018-10-17T04:39:56.321Z,16.80
2018-10-17T04:41:26.843Z,16.00
2018-10-17T04:42:58.455Z,16.50
2018-10-17T04:46:01.871Z,15.50
2018-10-17T04:50:36.586Z,16.10
2018-10-17T04:52:07.951Z,14.20
2018-10-17T04:53:39.626Z,15.20
2018-10-17T04:55:11.143Z,16.90
2018-10-17T04:56:42.570Z,14.30
2018-10-17T05:02:48.860Z,14.20
2018-10-17T05:04:20.594Z,14.60
2018-10-17T05:05:52.006Z,15.20
2018-10-17T05:11:58.297Z,15.20
2018-10-17T05:13:29.870Z,15.00
2018-10-17T05:15:01.467Z,16.10
2018-10-17T05:16:33.217Z,14.30
2018-10-17T05:21:07.734Z,14.50
2018-10-17T05:22:39.407Z,14.30
2018-10-17T05:24:10.883Z,15.60
2018-10-17T05:25:42.453Z,15.20
2018-10-17T05:34:52.143Z,16.10
2018-10-17T05:36:23.462Z,14.90
2018-10-17T05:37:55.990Z,17.50
2018-10-17T05:39:26.612Z,16.50
2018-10-17T05:40:58.359Z,16.40
2018-10-17T05:44:01.327Z,15.10
2018-10-17T05:50:07.618Z,16.60
2018-10-17T05:51:39.194Z,16.10
2018-10-17T05:53:10.994Z,16.10
2018-10-17T05:54:42.338Z,15.10
2018-10-17T05:56:13.913Z,16.70
2018-10-17T05:57:45.481Z,15.90
2018-10-17T06:06:54.980Z,16.80
2018-10-17T06:08:26.493Z,15.60
2018-10-17T06:09:58.066Z,15.70
2018-10-17T06:23:42.525Z,17.60
2018-10-17T06:26:45.579Z,16.90
2018-10-17T06:28:16.989Z,17.20
2018-10-17T06:38:57.953Z,17.20
2018-10-17T06:42:01.553Z,16.40
2018-10-17T06:43:32.827Z,16.50
2018-10-17T06:46:35.816Z,13.90
2018-10-17T06:48:07.694Z,16.00
2018-10-17T06:49:38.963Z,15.90
2018-10-17T06:58:48.401Z,16.50
2018-10-17T07:00:20.275Z,15.30
2018-10-17T07:01:51.561Z,15.60
2018-10-17T07:07:57.837Z,14.10
2018-10-17T07:11:01.055Z,13.30
2018-10-17T07:12:32.659Z,13.60
2018-10-17T07:14:04.128Z,14.10
2018-10-17T07:15:35.868Z,13.80
2018-10-17T07:21:42.202Z,14.30
2018-10-17T07:23:13.632Z,13.60
2018-10-17T07:26:16.914Z,15.40
2018-10-17T07:27:48.331Z,13.70
2018-10-17T07:32:24.708Z,14.20
2018-10-17T07:35:26.193Z,14.80
2018-10-17T07:36:57.723Z,14.80
2018-10-17T07:38:29.447Z,14.50
2018-10-17T07:40:00.869Z,15.00
2018-10-17T07:41:32.444Z,15.60
2018-10-17T07:47:38.735Z,14.40
2018-10-17T07:49:10.307Z,15.60
2018-10-17T07:50:42.124Z,15.70
2018-10-17T07:59:51.392Z,14.50
2018-10-17T08:01:23.195Z,14.40
2018-10-17T08:02:54.899Z,15.60
2018-10-17T08:15:07.198Z,16.40
2018-10-17T08:16:38.623Z,15.70
2018-10-17T08:18:10.227Z,15.90
2018-10-17T08:27:19.765Z,18.30
2018-10-17T08:33:26.423Z,16.10
2018-10-17T08:34:57.493Z,15.00
2018-10-17T08:36:29.229Z,15.30
2018-10-17T08:38:00.662Z,15.10
2018-10-17T08:39:32.313Z,15.30
2018-10-17T08:48:41.649Z,16.20
2018-10-17T08:50:13.575Z,18.40
2018-10-17T08:51:44.987Z,16.10
2018-10-17T08:57:51.335Z,16.70
2018-10-17T08:59:22.658Z,18.40
2018-10-17T09:00:54.231Z,18.10
2018-10-17T09:02:25.806Z,17.10
2018-10-17T09:10:04.551Z,15.80
2018-10-17T09:11:35.352Z,17.20
2018-10-17T09:13:06.814Z,17.30
2018-10-17T09:14:38.448Z,18.50
2018-10-17T09:22:16.975Z,17.80
2018-10-17T09:25:19.531Z,17.50
2018-10-17T09:31:25.693Z,17.40
2018-10-17T09:32:57.873Z,16.20
2018-10-17T09:34:29.270Z,14.80
2018-10-17T09:36:00.515Z,16.00
2018-10-17T09:37:32.005Z,15.60
2018-10-17T09:43:38.282Z,15.50
2018-10-17T09:45:09.889Z,15.60
2018-10-17T09:46:41.626Z,14.80
2018-10-17T09:48:13.020Z,15.30
2018-10-17T09:54:19.507Z,14.60
2018-10-17T09:55:50.883Z,14.10
2018-10-17T09:57:22.453Z,14.00
2018-10-17T10:03:28.748Z,14.50
2018-10-17T10:11:07.059Z,13.00
2018-10-17T10:12:39.057Z,12.50
2018-10-17T10:14:10.071Z,12.30
2018-10-17T10:15:41.348Z,11.80
2018-10-17T10:23:19.808Z,11.60
2018-10-17T10:24:51.284Z,11.60
2018-10-17T10:27:54.737Z,10.40
2018-10-17T10:29:25.979Z,11.60
2018-10-17T10:30:57.221Z,10.20
2018-10-17T10:32:28.842Z,11.10
2018-10-17T10:34:00.875Z,10.30
2018-10-17T10:35:32.706Z,11.60
2018-10-17T10:37:03.733Z,10.70
2018-10-17T10:38:35.790Z,10.70
2018-10-17T10:40:06.991Z,10.60
2018-10-17T10:41:39.242Z,11.60
2018-10-17T10:43:09.991Z,11.30
2018-10-17T10:44:41.608Z,13.00
2018-10-17T10:46:13.349Z,11.40
2018-10-17T10:47:44.749Z,12.00
2018-10-17T10:49:16.179Z,12.90
2018-10-17T10:50:47.731Z,11.90
2018-10-17T10:52:19.730Z,12.20
2018-10-17T10:55:23.494Z,13.80
2018-10-17T10:56:54.154Z,13.80
2018-10-17T10:58:26.325Z,13.40
2018-10-17T10:59:57.796Z,14.90
2018-10-17T11:01:29.894Z,14.30
2018-10-17T11:03:01.994Z,15.20
2018-10-17T11:04:32.858Z,14.20
2018-10-17T11:06:04.998Z,14.90
2018-10-17T11:07:35.473Z,14.90
2018-10-17T11:09:08.178Z,13.70
2018-10-17T11:10:39.032Z,14.30
2018-10-17T11:12:09.927Z,12.90
2018-10-17T11:13:41.943Z,13.90
2018-10-17T11:15:13.722Z,13.60
2018-10-17T11:16:45.636Z,12.80
2018-10-17T11:18:17.740Z,11.90
2018-10-17T11:19:49.398Z,12.40
2018-10-17T11:21:20.423Z,11.80
2018-10-17T11:22:53.208Z,11.50
2018-10-17T11:24:23.839Z,10.40
2018-10-17T11:25:55.207Z,11.30
2018-10-17T11:27:27.746Z,10.80
2018-10-17T11:28:57.898Z,10.20
2018-10-17T11:30:30.713Z,10.70
2018-10-17T11:32:03.971Z,10.90
2018-10-17T11:33:33.261Z,10.60
2018-10-17T11:35:04.972Z,10.70
2018-10-17T11:36:36.736Z,10.80
2018-10-17T11:38:07.732Z,11.00
2018-10-17T11:39:39.746Z,11.20
2018-10-17T11:41:11.097Z,11.10
2018-10-17T11:42:43.178Z,10.90
2018-10-17T11:44:14.861Z,10.40
2018-10-17T11:45:45.714Z,10.10
2018-10-17T11:47:18.127Z,11.30
2018-10-17T11:48:48.717Z,11.80
2018-10-17T11:50:20.311Z,10.40
2018-10-17T11:51:51.882Z,10.20
2018-10-17T11:53:23.830Z,10.80
2018-10-17T11:54:55.048Z,11.30
2018-10-17T11:56:27.303Z,10.40
2018-10-17T11:57:58.474Z,10.20
2018-10-17T11:59:29.884Z,10.10
2018-10-17T12:01:00.627Z,11.30
2018-10-17T12:04:04.252Z,11.30
2018-10-17T12:07:06.784Z,10.00
2018-10-17T12:08:38.305Z,10.80
2018-10-17T12:13:13.389Z,8.50
2018-10-17T12:14:45.874Z,9.40
2018-10-17T12:16:16.357Z,9.30
2018-10-17T12:17:48.952Z,10.30
2018-10-17T12:19:20.382Z,9.70
2018-10-17T12:20:51.277Z,9.90
2018-10-17T12:22:22.668Z,9.30
2018-10-17T12:23:54.102Z,9.20
2018-10-17T12:25:26.031Z,9.90
2018-10-17T12:26:57.903Z,9.30
2018-10-17T12:28:29.625Z,10.20
2018-10-17T12:30:00.836Z,8.30
2018-10-17T12:31:32.193Z,9.70
2018-10-17T12:33:03.703Z,9.70
2018-10-17T12:34:35.779Z,9.70
2018-10-17T12:36:07.341Z,7.50
2018-10-17T12:37:38.458Z,7.80
2018-10-17T12:39:10.411Z,7.70
2018-10-17T12:40:43.415Z,7.90
2018-10-17T12:42:15.999Z,8.60
2018-10-17T12:43:47.644Z,7.90
2018-10-17T12:45:16.504Z,7.70
2018-10-17T12:46:48.076Z,7.70
2018-10-17T12:48:20.627Z,7.50
2018-10-17T12:49:51.719Z,7.40
2018-10-17T12:51:23.233Z,8.10
2018-10-17T12:52:55.119Z,7.00
2018-10-17T12:54:25.908Z,7.60
2018-10-17T12:55:57.889Z,8.20
2018-10-17T12:57:29.420Z,7.00
2018-10-17T12:59:00.659Z,7.50
2018-10-17T13:00:32.494Z,6.90
2018-10-17T13:02:03.973Z,8.20
2018-10-17T13:03:35.743Z,7.10
2018-10-17T13:05:07.424Z,7.60
2018-10-17T13:06:40.809Z,7.70
2018-10-17T13:08:10.320Z,7.00
2018-10-17T13:09:43.387Z,7.60
2018-10-17T13:11:13.339Z,7.70
2018-10-17T13:12:45.310Z,8.40
2018-10-17T13:14:17.361Z,7.70
2018-10-17T13:15:47.963Z,7.40
2018-10-17T13:17:19.765Z,7.20
2018-10-17T13:18:51.557Z,7.60
2018-10-17T13:20:22.766Z,7.00
2018-10-17T13:21:56.877Z,6.60
2018-10-17T13:23:26.513Z,6.30
2018-10-17T13:24:58.694Z,7.00
2018-10-17T13:26:29.221Z,6.00
2018-10-17T13:28:00.777Z,6.00
2018-10-17T13:29:32.962Z,6.90
2018-10-17T13:32:36.122Z,6.30
2018-10-17T13:34:07.194Z,6.30
2018-10-17T13:35:38.940Z,6.10
2018-10-17T13:37:10.562Z,6.30
2018-10-17T13:38:42.064Z,5.10
2018-10-17T13:40:13.393Z,5.70
2018-10-17T13:41:45.233Z,5.60
2018-10-17T13:43:16.799Z,5.00
2018-10-17T13:44:48.534Z,5.40
2018-10-17T13:46:20.015Z,5.10
2018-10-17T13:47:51.303Z,5.50
2018-10-17T13:49:23.462Z,4.80
2018-10-17T13:50:55.156Z,5.40
2018-10-17T13:52:27.290Z,5.20
2018-10-17T13:53:57.907Z,4.50
2018-10-17T13:55:29.371Z,6.20
2018-10-17T13:57:01.241Z,5.60
2018-10-17T13:58:33.626Z,5.80
2018-10-17T14:00:04.106Z,5.60
2018-10-17T14:01:35.581Z,5.50
2018-10-17T14:03:08.118Z,5.30
2018-10-17T14:06:12.289Z,5.70
2018-10-17T14:09:16.895Z,5.80
2018-10-17T14:12:16.824Z,5.40
2018-10-17T14:13:48.827Z,4.50
2018-10-17T14:15:20.498Z,4.60
2018-10-17T14:16:51.714Z,5.30
2018-10-17T14:18:23.165Z,5.20
2018-10-17T14:19:54.590Z,5.20
2018-10-17T14:21:26.265Z,5.30
2018-10-17T14:22:57.729Z,5.60
2018-10-17T14:24:29.443Z,5.10
2018-10-17T14:26:00.856Z,4.90
2018-10-17T14:27:32.700Z,5.30
2018-10-17T14:29:04.304Z,5.10
2018-10-17T14:32:08.070Z,4.00
2018-10-17T14:35:11.744Z,4.60
2018-10-17T14:36:43.493Z,4.60
2018-10-17T14:38:14.772Z,4.50
2018-10-17T14:39:47.468Z,4.40
2018-10-17T14:41:17.843Z,4.90
2018-10-17T14:42:50.107Z,4.20
2018-10-17T14:44:21.414Z,4.50
2018-10-17T14:45:53.585Z,3.80
2018-10-17T14:47:24.652Z,4.60
2018-10-17T14:48:56.233Z,4.20
2018-10-17T14:50:28.323Z,4.40
2018-10-17T14:52:01.350Z,4.50
2018-10-17T14:53:30.814Z,4.70
2018-10-17T14:55:02.049Z,4.10
2018-10-17T14:56:33.265Z,4.40
2018-10-17T14:58:04.760Z,4.80
2018-10-17T14:59:36.789Z,4.50
2018-10-17T15:01:08.093Z,4.50
2018-10-17T15:02:40.213Z,4.50
2018-10-17T15:04:11.340Z,5.00
2018-10-17T15:05:43.734Z,4.70
2018-10-17T15:07:14.789Z,4.70
2018-10-17T15:08:45.383Z,4.40
2018-10-17T15:10:17.622Z,4.80
2018-10-17T15:11:50.270Z,5.00
2018-10-17T15:13:20.526Z,4.90
2018-10-17T15:16:23.316Z,5.00
2018-10-17T15:17:54.840Z,4.90
2018-10-17T15:20:58.136Z,5.60
2018-10-17T15:22:29.692Z,5.50
2018-10-17T15:24:01.330Z,4.80
2018-10-17T15:25:33.651Z,4.90
2018-10-17T15:27:04.361Z,5.50
2018-10-17T15:28:35.904Z,5.00
2018-10-17T15:30:08.944Z,5.40
2018-10-17T15:33:11.065Z,5.40
2018-10-17T15:34:42.246Z,6.20
2018-10-17T15:36:13.903Z,5.80
2018-10-17T15:37:45.666Z,6.00
2018-10-17T15:39:17.317Z,6.00
2018-10-17T15:42:20.778Z,6.80
2018-10-17T15:43:52.319Z,6.30
2018-10-17T15:46:55.076Z,6.20
2018-10-17T15:48:26.808Z,6.40
2018-10-17T15:51:30.483Z,6.60
2018-10-17T15:53:02.103Z,6.60
2018-10-17T15:54:33.343Z,6.80
2018-10-17T15:56:06.791Z,6.90
2018-10-17T15:57:40.373Z,6.60
2018-10-17T15:59:09.034Z,6.30
2018-10-17T16:02:11.692Z,6.40
2018-10-17T16:03:42.977Z,5.90
2018-10-17T16:05:14.149Z,7.20
2018-10-17T16:06:45.901Z,6.80
2018-10-17T16:08:18.305Z,7.30
2018-10-17T16:09:48.848Z,6.60
2018-10-17T16:11:21.210Z,6.90
2018-10-17T16:12:53.051Z,6.80
2018-10-17T16:14:25.322Z,6.90
2018-10-17T16:15:55.582Z,7.00
2018-10-17T16:17:27.169Z,7.50
2018-10-17T16:18:59.231Z,6.50
2018-10-17T16:20:31.547Z,6.70
2018-10-17T16:22:01.481Z,5.90
2018-10-17T16:23:34.794Z,7.00
2018-10-17T16:25:05.604Z,6.60
2018-10-17T16:26:38.427Z,7.50
2018-10-17T16:28:12.222Z,7.20
2018-10-17T16:31:12.612Z,8.00
2018-10-17T16:32:43.426Z,7.40
2018-10-17T16:34:14.952Z,8.50
2018-10-17T16:35:46.484Z,8.30
2018-10-17T16:37:18.521Z,7.20
2018-10-17T16:38:49.846Z,3.40
2018-10-17T16:40:21.641Z,4.00
2018-10-17T16:41:52.941Z,4.60
2018-10-17T16:43:25.830Z,5.00
2018-10-17T16:44:57.148Z,4.80
2018-10-17T16:46:28.193Z,5.20
2018-10-17T16:47:58.999Z,5.10
2018-10-17T16:49:31.742Z,5.30
2018-10-17T16:51:02.870Z,5.20
2018-10-17T16:52:33.860Z,5.50
2018-10-17T16:54:05.780Z,5.00
2018-10-17T16:55:37.309Z,4.80
2018-10-17T16:57:09.616Z,4.70
2018-10-17T16:58:40.651Z,3.90
2018-10-17T17:00:12.992Z,4.00
2018-10-17T17:01:44.246Z,3.50
2018-10-17T17:03:15.401Z,3.30
2018-10-17T17:04:46.768Z,3.30
2018-10-17T17:06:19.770Z,3.70
2018-10-17T17:07:49.529Z,3.60
2018-10-17T17:09:21.526Z,3.10
2018-10-17T17:10:52.785Z,3.10
2018-10-17T17:12:24.526Z,2.80
2018-10-17T17:13:55.414Z,3.00
2018-10-17T17:15:27.743Z,3.20
2018-10-17T17:16:59.057Z,3.00
2018-10-17T17:18:30.437Z,2.80
2018-10-17T17:20:01.699Z,3.10
2018-10-17T17:21:33.339Z,3.20
2018-10-17T17:23:04.764Z,3.50
2018-10-17T17:24:36.568Z,3.40
2018-10-17T17:26:07.874Z,3.10
2018-10-17T17:27:40.604Z,3.50
2018-10-17T17:29:13.594Z,3.10
2018-10-17T17:30:45.178Z,3.80
2018-10-17T17:32:14.424Z,4.00
2018-10-17T17:33:47.404Z,3.50
2018-10-17T17:36:49.984Z,3.60
2018-10-17T17:38:20.793Z,3.80
2018-10-17T17:39:52.231Z,3.40
2018-10-17T17:41:24.333Z,3.50
2018-10-17T17:42:55.316Z,3.90
2018-10-17T17:45:58.483Z,3.90
2018-10-17T17:47:30.060Z,4.40
2018-10-17T17:49:02.169Z,4.10
2018-10-17T17:52:04.925Z,4.50
2018-10-17T17:53:36.452Z,4.70
2018-10-17T17:55:08.008Z,4.10
2018-10-17T17:59:43.460Z,5.80
2018-10-17T18:02:45.934Z,5.40
2018-10-17T18:08:53.101Z,5.90
2018-10-17T18:10:24.388Z,5.70
2018-10-17T18:11:56.403Z,6.40
2018-10-17T18:13:27.062Z,5.90
2018-10-17T18:16:30.239Z,5.70
2018-10-17T18:18:02.132Z,6.00
2018-10-17T18:19:33.420Z,5.60
2018-10-17T18:21:05.004Z,6.30
2018-10-17T18:22:36.596Z,7.30
2018-10-17T18:25:40.309Z,6.60
2018-10-17T18:27:11.361Z,8.80
2018-10-17T18:28:43.155Z,9.20
2018-10-17T18:30:14.543Z,9.20
2018-10-17T18:31:46.332Z,8.20
2018-10-17T18:33:17.719Z,8.10
2018-10-17T18:34:49.306Z,7.80
2018-10-17T18:36:20.898Z,8.10
2018-10-17T18:37:52.683Z,8.00
2018-10-17T18:40:55.654Z,7.90
2018-10-17T18:42:27.237Z,8.70
2018-10-17T18:43:58.823Z,8.60
2018-10-17T18:47:02.110Z,10.20
2018-10-17T18:48:33.572Z,9.20
2018-10-17T18:50:05.155Z,11.70
2018-10-17T18:51:36.940Z,10.10
2018-10-17T18:56:11.541Z,10.50
2018-10-17T18:57:43.067Z,9.70
2018-10-17T18:59:14.650Z,9.50
2018-10-17T19:00:46.255Z,9.50
2018-10-17T19:02:17.976Z,8.30
2018-10-17T19:03:49.652Z,8.20
2018-10-17T19:05:20.977Z,7.80
2018-10-17T19:06:52.559Z,8.40
2018-10-17T19:08:24.441Z,7.70
2018-10-17T19:09:56.658Z,7.80
2018-10-17T19:11:27.302Z,7.60
2018-10-17T19:12:59.416Z,7.30
2018-10-17T19:14:30.465Z,8.40
2018-10-17T19:16:02.269Z,7.80
2018-10-17T19:17:33.635Z,7.90
2018-10-17T19:19:06.145Z,7.50
2018-10-17T19:20:36.887Z,7.40
2018-10-17T19:22:08.390Z,7.50
2018-10-17T19:23:39.947Z,7.40
2018-10-17T19:26:43.113Z,7.60
2018-10-17T19:28:14.689Z,7.90
2018-10-17T19:29:46.267Z,10.70
2018-10-17T19:31:17.846Z,12.40
2018-10-17T19:32:50.015Z,13.20
2018-10-17T19:34:21.003Z,12.10
2018-10-17T19:37:24.170Z,15.00
2018-10-17T19:38:55.893Z,15.80
2018-10-17T19:40:27.321Z,10.20
2018-10-17T19:41:58.972Z,11.30
2018-10-17T19:46:27.118Z,8.80
2018-10-17T19:47:58.642Z,8.70
2018-10-17T19:49:30.164Z,9.00
2018-10-17T19:51:01.773Z,10.00
2018-10-17T19:52:33.321Z,10.10
2018-10-17T19:54:05.034Z,13.80
2018-10-17T19:55:36.460Z,11.60
2018-10-17T19:58:39.706Z,11.50
2018-10-17T20:00:11.493Z,8.00
2018-10-17T20:01:42.763Z,10.70
2018-10-17T20:03:14.482Z,12.90
2018-10-17T20:04:45.898Z,13.40
2018-10-17T20:06:17.480Z,12.50
2018-10-17T20:07:49.503Z,12.50
2018-10-17T20:09:20.618Z,11.20
2018-10-17T20:10:52.394Z,10.60
2018-10-17T20:12:23.768Z,10.10
2018-10-17T20:13:55.540Z,11.10
2018-10-17T20:15:26.912Z,11.80
2018-10-17T20:16:59.219Z,13.40
2018-10-17T20:18:30.058Z,11.00
2018-10-17T20:20:01.633Z,14.00
2018-10-17T20:21:33.212Z,14.70
2018-10-17T20:23:04.778Z,9.60
2018-10-17T20:24:36.351Z,8.50
2018-10-17T20:26:07.925Z,7.00
2018-10-17T20:27:39.498Z,7.40
2018-10-17T20:29:11.171Z,6.60
2018-10-17T20:30:42.644Z,6.80
2018-10-17T20:32:14.217Z,4.80
2018-10-17T20:33:45.790Z,4.40
2018-10-17T20:35:17.527Z,4.50
2018-10-17T20:36:48.937Z,3.40
2018-10-17T20:38:20.513Z,3.40
2018-10-17T20:41:23.657Z,4.00
2018-10-17T20:42:55.232Z,4.40
2018-10-17T20:44:26.806Z,4.20
2018-10-17T20:45:58.375Z,5.20
2018-10-17T20:47:29.948Z,4.80
2018-10-17T20:49:01.534Z,4.20
2018-10-17T20:50:33.096Z,3.90
2018-10-17T20:52:04.665Z,4.30
2018-10-17T20:53:36.338Z,3.70
2018-10-17T20:55:07.824Z,3.80
2018-10-17T20:56:39.396Z,3.80
2018-10-17T20:58:11.039Z,3.50
2018-10-17T21:01:14.102Z,4.70
2018-10-17T21:02:45.674Z,4.50
2018-10-17T21:04:17.458Z,7.50
2018-10-17T21:07:20.393Z,9.00
2018-10-17T21:08:52.270Z,9.30
2018-10-17T21:10:23.538Z,7.60
2018-10-17T21:11:55.112Z,8.10
2018-10-17T21:13:26.785Z,8.20
2018-10-17T21:14:58.563Z,7.70
2018-10-17T21:16:29.831Z,7.20
2018-10-17T21:18:01.404Z,7.80
2018-10-17T21:19:32.978Z,7.20
2018-10-17T21:21:04.550Z,7.40
2018-10-17T21:22:36.123Z,8.10
2018-10-17T21:24:07.697Z,8.10
2018-10-17T21:25:39.370Z,7.70
2018-10-17T21:27:10.846Z,7.60
2018-10-17T21:28:42.417Z,8.30
2018-10-17T21:30:13.991Z,8.00
2018-10-17T21:31:45.765Z,10.70
2018-10-17T21:33:17.139Z,10.30
2018-10-17T21:34:48.711Z,12.30
2018-10-17T21:36:20.285Z,10.90
2018-10-17T21:37:52.032Z,10.10
2018-10-17T21:39:23.432Z,12.30
2018-10-17T21:40:55.006Z,12.00
2018-10-17T21:42:26.579Z,11.50
2018-10-17T21:43:58.158Z,11.40
2018-10-17T21:45:29.726Z,11.80
2018-10-17T21:47:01.300Z,12.70
2018-10-17T21:48:32.872Z,15.50
2018-10-17T21:50:04.600Z,14.10
2018-10-17T21:51:36.020Z,15.00
2018-10-17T21:53:07.593Z,14.70
2018-10-17T21:54:39.167Z,12.90
2018-10-17T21:56:10.796Z,12.00
2018-10-17T21:59:13.889Z,11.30
2018-10-17T22:00:45.462Z,12.00
2018-10-17T22:02:17.268Z,15.40
2018-10-17T22:03:48.609Z,13.70
2018-10-17T22:05:20.184Z,13.00
2018-10-17T22:06:51.966Z,14.40
2018-10-17T22:08:23.432Z,16.00
2018-10-17T22:09:55.001Z,16.20
2018-10-17T22:11:26.485Z,13.50
2018-10-17T22:12:58.052Z,15.00
2018-10-17T22:14:29.626Z,14.80
2018-10-17T22:16:01.199Z,19.10
2018-10-17T22:17:32.776Z,16.50
2018-10-17T22:27:41.644Z,22.80
2018-10-17T22:29:13.192Z,22.10
2018-10-17T22:30:44.698Z,21.30
2018-10-17T22:32:16.391Z,21.70
2018-10-17T22:33:48.069Z,22.70
2018-10-17T22:35:19.411Z,21.90
2018-10-17T22:36:51.322Z,21.30
2018-10-17T22:38:22.483Z,20.80
2018-10-17T22:39:54.002Z,22.60
2018-10-17T22:41:25.716Z,21.90
2018-10-17T22:42:57.231Z,21.70
2018-10-17T22:44:28.704Z,22.20
2018-10-17T22:46:00.278Z,21.60
2018-10-17T22:47:31.853Z,22.70
2018-10-17T22:49:03.426Z,23.20
2018-10-17T22:50:35.009Z,20.80
2018-10-17T22:52:06.574Z,23.30
2018-10-17T22:53:38.189Z,22.30
2018-10-17T22:55:09.789Z,22.30
2018-10-17T22:56:41.906Z,21.10
2018-10-17T22:58:12.909Z,20.10
2018-10-17T22:59:44.494Z,18.70
2018-10-17T23:01:16.156Z,19.10
2018-10-17T23:02:47.581Z,18.40
2018-10-17T23:04:19.155Z,16.80
2018-10-17T23:05:50.728Z,18.00
2018-10-17T23:07:22.302Z,19.00
2018-10-17T23:10:25.450Z,20.50
2018-10-17T23:11:57.070Z,19.70
2018-10-17T23:13:29.420Z,21.40
2018-10-17T23:15:00.222Z,19.70
2018-10-17T23:16:31.796Z,21.20
2018-10-17T23:18:03.370Z,21.70
2018-10-17T23:19:35.042Z,23.10
2018-10-17T23:21:06.520Z,23.10
2018-10-17T23:22:38.033Z,22.00
2018-10-17T23:24:09.609Z,22.60
2018-10-17T23:25:41.182Z,23.30
2018-10-17T23:27:12.767Z,22.30
2018-10-17T23:28:44.330Z,22.30
2018-10-17T23:30:15.904Z,24.70
2018-10-17T23:31:47.540Z,30.10
2018-10-17T23:33:19.673Z,26.70
2018-10-17T23:34:50.682Z,25.30
2018-10-17T23:36:22.305Z,23.00
2018-10-17T23:37:54.051Z,23.10
2018-10-17T23:39:25.402Z,22.90
2018-10-17T23:40:57.047Z,25.00
2018-10-17T23:42:28.613Z,25.30
2018-10-17T23:44:00.418Z,25.90
2018-10-17T23:45:31.748Z,23.70
2018-10-17T23:47:03.288Z,26.80
2018-10-17T23:48:34.918Z,27.90
2018-10-17T23:50:06.519Z,31.10
2018-10-17T23:51:37.996Z,29.20
2018-10-17T23:53:09.514Z,27.60
2018-10-17T23:54:41.105Z,27.90
2018-10-17T23:56:12.827Z,28.10
2018-10-17T23:57:44.237Z,29.80
2018-10-17T23:59:15.857Z,27.60
